Airfield :







YOU CAN JOIN US ON...

 
LOGIN :

Register | Disclaimer

   EN    FR    IT 

 









Legend :    VFR   Marginal VFR   IFR   Intensive IFR   Very Intensive IFR
Visi :
Ceiling :
>= 8 km
>= 3000ft
5 to 8 km
1000 to 3000 ft
1500m to 5 km
500 to 1000 ft
800 to 1500m
200 to 500 ft
< 800m
< 200 ft
Symbols :   Thunderstorms  Fog  Heavy snow  Heavy precipitations  Wind > 20 kt







- Airport Elevation : 792 ft
- IATA code : YSC


CYSC - Sherbrooke

CURRENT METAR :
  • 191200Z AUTO 06005KT 9SM -RA BKN070 BKN250 09/08 A3002 RMK PCPN 1.0MM PAST HR SLP173

EXPIRED METARs :
  • 191100Z AUTO 04005KT 9SM -RA SCT042 BKN065 08/08 A3004 RMK SLP178
  • 191000Z AUTO 07007KT 9SM -RA OVC070 08/08 A3004 RMK SLP178

TAF TAF CYSC
Valid from the 19 at 11:00 until the 19 at 23:00 UTC


191038Z 1911/1923 07007KT P6SM -RA OVC070
TEMPO 1911/1917 5SM -SHRA BR SCT008 OVC020
FM191700 14006KT 6SM -RA BR OVC012
TEMPO 1917/1923 5SM -DZ -RA BR BKN007 OVC012 RMK FCST BASED ON AUTO OBS. NXT FCST BY 191800Z
CZUL FIR / North America



MET'MAP, your aeronautical weather chart ! - Copyright ORBIFLY December 2007 - Disclaimer

ORBIFLY MET'MAP TEAM :

Programming & Development : Alexandra Zaïnal
Concept & Development : Baudouin d'Aumeries
Co-Development & Prog : Marc-Olivier Méhu
Technical & hardware support : Manuel Goepfert

Contact : metmap@orbifly.com




SOURCES & CREDITS :

   NOAA